createdAt,value
2019-01-20T00:00:40.492Z,12.73
2019-01-20T00:03:08.645Z,12.83
2019-01-20T00:05:36.782Z,13.00
2019-01-20T00:08:04.982Z,12.53
2019-01-20T00:10:33.224Z,12.83
2019-01-20T00:13:01.435Z,13.37
2019-01-20T00:15:29.629Z,13.30
2019-01-20T00:17:58.197Z,13.70
2019-01-20T00:20:28.183Z,13.43
2019-01-20T00:22:56.851Z,13.87
2019-01-20T00:25:24.992Z,13.50
2019-01-20T00:27:53.416Z,13.60
2019-01-20T00:30:21.551Z,14.83
2019-01-20T00:32:49.757Z,13.77
2019-01-20T00:35:17.922Z,13.00
2019-01-20T00:37:46.145Z,13.87
2019-01-20T00:40:15.929Z,13.20
2019-01-20T00:42:44.130Z,14.30
2019-01-20T00:45:13.738Z,14.00
2019-01-20T00:47:41.891Z,14.07
2019-01-20T00:50:11.226Z,14.43
2019-01-20T00:52:39.432Z,13.73
2019-01-20T00:55:27.063Z,15.07
2019-01-20T00:57:55.258Z,14.20
2019-01-20T01:00:25.122Z,13.70
2019-01-20T01:02:53.317Z,14.77
2019-01-20T01:05:21.468Z,14.53
2019-01-20T01:07:49.805Z,14.47
2019-01-20T01:10:18.020Z,14.20
2019-01-20T01:12:46.443Z,15.27
2019-01-20T01:15:14.573Z,14.47
2019-01-20T01:17:42.724Z,13.87
2019-01-20T01:20:12.379Z,14.43
2019-01-20T01:22:40.708Z,14.57
2019-01-20T01:25:11.269Z,14.33
2019-01-20T01:27:39.963Z,14.63
2019-01-20T01:30:13.131Z,14.40
2019-01-20T01:32:41.344Z,14.80
2019-01-20T01:35:09.494Z,14.73
2019-01-20T01:37:37.646Z,14.87
2019-01-20T01:40:07.566Z,15.13
2019-01-20T01:42:35.686Z,15.60
2019-01-20T01:45:05.987Z,15.60
2019-01-20T01:47:34.127Z,15.50
2019-01-20T01:50:02.250Z,14.90
2019-01-20T01:52:30.492Z,15.63
2019-01-20T01:54:58.659Z,14.83
2019-01-20T01:57:26.875Z,15.60
2019-01-20T01:59:55.014Z,15.33
2019-01-20T02:02:23.156Z,15.50
2019-01-20T02:04:51.296Z,15.67
2019-01-20T02:07:19.440Z,15.63
2019-01-20T02:09:47.573Z,16.07
2019-01-20T02:12:15.825Z,15.70
2019-01-20T02:14:43.975Z,14.63
2019-01-20T02:17:12.166Z,15.23
2019-01-20T02:19:40.362Z,16.13
2019-01-20T02:22:08.516Z,15.60
2019-01-20T02:24:36.728Z,16.00
2019-01-20T02:27:04.868Z,15.50
2019-01-20T02:29:33.055Z,16.80
2019-01-20T02:32:01.245Z,16.00
2019-01-20T02:34:29.377Z,15.93
2019-01-20T02:36:57.579Z,15.93
2019-01-20T02:39:25.802Z,15.70
2019-01-20T02:41:55.298Z,16.30
2019-01-20T02:44:23.818Z,17.17
2019-01-20T02:46:52.148Z,17.13
2019-01-20T02:49:20.342Z,16.73
2019-01-20T02:51:48.517Z,16.87
2019-01-20T02:54:16.652Z,17.57
2019-01-20T02:56:44.810Z,17.00
2019-01-20T02:59:13.173Z,18.07
2019-01-20T03:01:41.466Z,17.37
2019-01-20T03:04:09.690Z,17.40
2019-01-20T03:06:37.997Z,17.60
2019-01-20T03:09:08.208Z,18.17
2019-01-20T03:11:36.562Z,17.30
2019-01-20T03:14:04.768Z,16.47
2019-01-20T03:16:32.990Z,16.80
2019-01-20T03:19:01.710Z,17.23
2019-01-20T03:21:29.858Z,18.20
2019-01-20T03:23:58.117Z,17.93
2019-01-20T03:26:26.239Z,17.70
2019-01-20T03:28:54.443Z,17.17
2019-01-20T03:31:22.667Z,18.17
2019-01-20T03:33:50.806Z,17.13
2019-01-20T03:36:18.975Z,19.00
2019-01-20T03:38:47.104Z,17.67
2019-01-20T03:41:15.240Z,18.27
2019-01-20T03:43:43.437Z,17.30
2019-01-20T03:46:11.771Z,18.53
2019-01-20T03:48:39.934Z,18.53
2019-01-20T03:51:08.173Z,19.20
2019-01-20T03:53:36.347Z,19.00
2019-01-20T03:56:04.708Z,18.80
2019-01-20T03:58:32.845Z,18.83
2019-01-20T04:01:01.055Z,19.10
2019-01-20T04:03:29.233Z,19.47
2019-01-20T04:05:57.404Z,19.33
2019-01-20T04:08:25.530Z,19.77
2019-01-20T04:10:53.673Z,19.73
2019-01-20T04:13:21.829Z,20.70
2019-01-20T04:15:50.066Z,19.63
2019-01-20T04:18:18.196Z,19.77
2019-01-20T04:20:46.366Z,19.80
2019-01-20T04:23:14.508Z,20.70
2019-01-20T04:25:42.730Z,20.80
2019-01-20T04:28:10.929Z,18.80
2019-01-20T04:30:39.093Z,19.80
2019-01-20T04:33:07.300Z,20.80
2019-01-20T04:35:35.524Z,21.13
2019-01-20T04:38:03.649Z,22.10
2019-01-20T04:40:31.811Z,20.77
2019-01-20T04:43:00.241Z,20.60
2019-01-20T04:45:28.844Z,21.70
2019-01-20T04:47:56.988Z,21.73
2019-01-20T04:50:25.125Z,22.30
2019-01-20T04:52:53.277Z,20.60
2019-01-20T04:55:21.484Z,22.47
2019-01-20T04:57:51.048Z,21.23
2019-01-20T05:00:20.420Z,21.57
2019-01-20T05:02:48.594Z,22.17
2019-01-20T05:05:16.884Z,21.47
2019-01-20T05:07:45.019Z,21.83
2019-01-20T05:10:14.364Z,22.73
2019-01-20T05:12:42.500Z,21.97
2019-01-20T05:15:11.693Z,22.20
2019-01-20T05:17:39.918Z,22.67
2019-01-20T05:20:09.126Z,23.90
2019-01-20T05:22:37.309Z,22.70
2019-01-20T05:25:06.875Z,24.80
2019-01-20T05:27:35.029Z,23.93
2019-01-20T05:30:04.516Z,22.67
2019-01-20T05:32:33.002Z,22.60
2019-01-20T05:35:01.179Z,23.47
2019-01-20T05:37:29.546Z,23.90
2019-01-20T05:39:57.747Z,23.83
2019-01-20T05:42:25.966Z,23.27
2019-01-20T05:44:54.133Z,24.83
2019-01-20T05:47:22.262Z,23.67
2019-01-20T05:49:50.397Z,23.83
2019-01-20T05:52:18.765Z,24.63
2019-01-20T05:54:46.971Z,24.30
2019-01-20T05:57:15.126Z,25.50
2019-01-20T05:59:43.360Z,25.23
2019-01-20T06:02:11.525Z,25.20
2019-01-20T06:04:39.654Z,25.93
2019-01-20T06:07:07.818Z,24.93
2019-01-20T06:09:35.967Z,25.67
2019-01-20T06:12:04.188Z,26.93
2019-01-20T06:14:32.422Z,26.47
2019-01-20T06:17:00.568Z,26.53
2019-01-20T06:19:28.744Z,26.63
2019-01-20T06:21:56.865Z,27.13
2019-01-20T06:24:25.068Z,26.53
2019-01-20T06:26:53.294Z,25.83
2019-01-20T06:29:21.485Z,26.60
2019-01-20T06:31:49.753Z,26.90
2019-01-20T06:34:17.987Z,27.40
2019-01-20T06:36:46.402Z,27.13
2019-01-20T06:39:14.813Z,27.00
2019-01-20T06:41:42.968Z,28.63
2019-01-20T06:44:11.108Z,26.83
2019-01-20T06:46:39.250Z,27.40
2019-01-20T06:49:07.417Z,28.40
2019-01-20T06:51:35.624Z,27.67
2019-01-20T06:54:03.923Z,27.57
2019-01-20T06:56:32.104Z,28.20
2019-01-20T06:59:00.331Z,28.07
2019-01-20T07:01:28.754Z,27.97
2019-01-20T07:03:56.933Z,28.03
2019-01-20T07:06:25.141Z,29.43
2019-01-20T07:08:53.279Z,28.47
2019-01-20T07:11:21.462Z,28.30
2019-01-20T07:13:49.589Z,29.73
2019-01-20T07:16:17.795Z,29.27
2019-01-20T07:18:45.959Z,28.53
2019-01-20T07:21:14.118Z,28.80
2019-01-20T07:23:42.328Z,28.27
2019-01-20T07:26:10.585Z,29.87
2019-01-20T07:28:38.791Z,30.07
2019-01-20T07:31:07.078Z,28.30
2019-01-20T07:33:35.288Z,29.47
2019-01-20T07:36:03.495Z,29.30
2019-01-20T07:38:31.663Z,30.43
2019-01-20T07:40:59.818Z,29.73
2019-01-20T07:43:27.952Z,29.57
2019-01-20T07:45:56.455Z,27.97
2019-01-20T07:48:24.607Z,29.87
2019-01-20T07:50:52.916Z,28.83
2019-01-20T07:53:21.120Z,29.17
2019-01-20T07:55:50.913Z,29.23
2019-01-20T07:58:19.246Z,30.60
2019-01-20T08:00:47.377Z,28.87
2019-01-20T08:03:15.797Z,30.70
2019-01-20T08:05:43.971Z,29.87
2019-01-20T08:08:12.103Z,29.47
2019-01-20T08:10:40.236Z,30.67
2019-01-20T08:13:09.151Z,31.10
2019-01-20T08:15:37.361Z,30.70
2019-01-20T08:18:05.536Z,30.33
2019-01-20T08:20:33.846Z,29.63
2019-01-20T08:23:03.256Z,30.90
2019-01-20T08:25:31.834Z,31.40
2019-01-20T08:27:59.962Z,30.80
2019-01-20T08:30:28.204Z,31.50
2019-01-20T08:32:56.383Z,32.03
2019-01-20T08:35:24.805Z,30.97
2019-01-20T08:37:54.290Z,31.10
2019-01-20T08:40:23.881Z,31.13
2019-01-20T08:42:52.122Z,31.70
2019-01-20T08:45:37.008Z,31.70
2019-01-20T08:48:06.915Z,32.60
2019-01-20T08:50:35.119Z,31.60
2019-01-20T08:53:03.571Z,30.63
2019-01-20T08:55:31.718Z,31.87
2019-01-20T08:57:59.863Z,31.87
2019-01-20T09:00:28.086Z,31.00
2019-01-20T09:02:56.228Z,32.17
2019-01-20T09:05:24.372Z,32.43
2019-01-20T09:07:52.503Z,32.73
2019-01-20T09:10:22.002Z,33.07
2019-01-20T09:13:10.303Z,32.37
2019-01-20T09:15:38.512Z,33.23
2019-01-20T09:18:06.949Z,33.00
2019-01-20T09:20:35.154Z,32.50
2019-01-20T09:23:03.449Z,33.93
2019-01-20T09:25:31.629Z,33.63
2019-01-20T09:27:59.820Z,32.83
2019-01-20T09:30:28.026Z,32.00
2019-01-20T09:32:56.199Z,33.50
2019-01-20T09:35:24.421Z,32.93
2019-01-20T09:37:52.506Z,33.80
2019-01-20T09:40:20.663Z,33.50
2019-01-20T09:42:48.863Z,33.30
2019-01-20T09:45:23.230Z,34.23
2019-01-20T09:47:51.354Z,33.53
2019-01-20T09:50:19.667Z,34.87
2019-01-20T09:52:47.754Z,34.90
2019-01-20T09:55:16.190Z,33.40
2019-01-20T09:57:44.804Z,33.50
2019-01-20T10:00:14.693Z,32.73
2019-01-20T10:02:42.819Z,34.90
2019-01-20T10:05:11.037Z,34.70
2019-01-20T10:07:39.154Z,35.47
2019-01-20T10:10:08.909Z,35.30
2019-01-20T10:12:37.036Z,34.53
2019-01-20T10:15:06.907Z,33.93
2019-01-20T10:17:35.051Z,35.23
2019-01-20T10:20:04.798Z,34.90
2019-01-20T10:22:32.940Z,33.73
2019-01-20T10:25:01.202Z,34.77
2019-01-20T10:27:29.338Z,34.37
2019-01-20T10:29:57.634Z,35.47
2019-01-20T10:32:25.772Z,35.07
2019-01-20T10:34:54.836Z,35.57
2019-01-20T10:37:23.145Z,35.40
2019-01-20T10:39:51.348Z,35.57
2019-01-20T10:42:19.608Z,36.33
2019-01-20T10:44:48.067Z,35.57
2019-01-20T10:47:16.285Z,36.00
2019-01-20T10:49:44.535Z,33.83
2019-01-20T10:52:12.736Z,34.63
2019-01-20T10:54:41.129Z,35.90
2019-01-20T10:57:09.461Z,36.13
2019-01-20T10:59:38.028Z,36.03
2019-01-20T11:02:06.178Z,33.97
2019-01-20T11:04:34.313Z,36.93
2019-01-20T11:07:02.506Z,36.77
2019-01-20T11:09:30.703Z,36.17
2019-01-20T11:11:58.975Z,35.40
2019-01-20T11:14:27.217Z,35.00
2019-01-20T11:16:55.342Z,35.83
2019-01-20T11:19:23.484Z,36.03
2019-01-20T11:21:51.748Z,35.83
2019-01-20T11:24:19.891Z,35.20
2019-01-20T11:26:48.099Z,35.63
2019-01-20T11:29:16.316Z,37.37
2019-01-20T11:31:44.521Z,35.73
2019-01-20T11:34:12.746Z,34.97
2019-01-20T11:36:40.879Z,36.60
2019-01-20T11:39:10.406Z,35.13
2019-01-20T11:41:38.533Z,36.13
2019-01-20T11:44:06.671Z,34.97
2019-01-20T11:46:34.951Z,36.03
2019-01-20T11:49:03.137Z,35.90
2019-01-20T11:51:31.287Z,36.27
2019-01-20T11:53:59.638Z,35.10
2019-01-20T11:56:27.876Z,35.57
2019-01-20T11:58:56.022Z,37.10
2019-01-20T12:01:24.155Z,36.50
2019-01-20T12:03:52.378Z,35.43
2019-01-20T12:06:20.620Z,35.40
2019-01-20T12:08:48.742Z,36.17
2019-01-20T12:11:16.873Z,35.17
2019-01-20T12:13:45.118Z,35.70
2019-01-20T12:16:13.320Z,36.03
2019-01-20T12:18:41.445Z,35.53
2019-01-20T12:21:09.663Z,35.23
2019-01-20T12:23:37.814Z,37.17
2019-01-20T12:26:05.952Z,36.60
2019-01-20T12:28:34.213Z,34.87
2019-01-20T12:31:02.334Z,36.03
2019-01-20T12:33:30.550Z,35.10
2019-01-20T12:35:59.043Z,35.53
2019-01-20T12:38:27.262Z,36.00
2019-01-20T12:40:55.388Z,36.43
2019-01-20T12:43:23.721Z,35.43
2019-01-20T12:45:51.897Z,34.33
2019-01-20T12:48:20.021Z,35.57
2019-01-20T12:50:48.134Z,37.33
2019-01-20T12:53:16.340Z,35.70
2019-01-20T12:55:44.481Z,35.77
2019-01-20T12:58:12.717Z,35.87
2019-01-20T13:00:40.846Z,35.63
2019-01-20T13:03:08.982Z,36.50
2019-01-20T13:05:37.169Z,36.13
2019-01-20T13:08:05.390Z,34.93
2019-01-20T13:10:33.656Z,34.50
2019-01-20T13:13:03.716Z,35.50
2019-01-20T13:15:31.968Z,35.03
2019-01-20T13:18:00.225Z,34.43
2019-01-20T13:20:28.349Z,35.27
2019-01-20T13:22:56.541Z,34.77
2019-01-20T13:25:26.330Z,34.40
2019-01-20T13:27:54.673Z,34.40
2019-01-20T13:30:23.948Z,35.30
2019-01-20T13:32:52.083Z,33.20
2019-01-20T13:35:23.775Z,33.20
2019-01-20T13:37:53.600Z,34.47
2019-01-20T13:40:23.517Z,33.23
2019-01-20T13:42:51.641Z,34.13
2019-01-20T13:45:19.851Z,34.03
2019-01-20T13:47:48.877Z,33.70
2019-01-20T13:50:18.960Z,33.13
2019-01-20T13:52:47.153Z,32.03
2019-01-20T13:55:16.039Z,33.57
2019-01-20T13:57:44.203Z,32.37
2019-01-20T14:00:19.473Z,31.53
2019-01-20T14:02:47.685Z,33.00
2019-01-20T14:05:16.352Z,32.10
2019-01-20T14:07:44.477Z,31.33
2019-01-20T14:10:14.183Z,32.47
2019-01-20T14:12:42.510Z,31.77
2019-01-20T14:15:11.628Z,31.47
2019-01-20T14:17:39.835Z,31.10
2019-01-20T14:20:09.681Z,31.93
2019-01-20T14:22:37.842Z,30.67
2019-01-20T14:25:07.599Z,30.67
2019-01-20T14:27:35.775Z,31.70
2019-01-20T14:30:05.558Z,30.97
2019-01-20T14:32:33.695Z,31.33
2019-01-20T14:35:01.936Z,32.87
2019-01-20T14:37:30.085Z,31.83
2019-01-20T14:39:58.220Z,31.07
2019-01-20T14:42:26.672Z,32.00
2019-01-20T14:45:00.900Z,30.10
2019-01-20T14:47:24.585Z,31.67
2019-01-20T14:49:52.806Z,31.90
2019-01-20T14:52:20.940Z,30.70
2019-01-20T14:54:49.083Z,32.33
2019-01-20T14:57:17.264Z,30.30
2019-01-20T14:59:45.696Z,31.47
2019-01-20T15:02:13.850Z,31.03
2019-01-20T15:04:42.025Z,32.00
2019-01-20T15:07:10.160Z,31.13
2019-01-20T15:09:38.298Z,31.30
2019-01-20T15:12:06.637Z,31.13
2019-01-20T15:14:34.726Z,32.13
2019-01-20T15:17:02.970Z,31.60
2019-01-20T15:19:31.095Z,29.93
2019-01-20T15:21:59.239Z,31.97
2019-01-20T15:24:31.235Z,31.20
2019-01-20T15:26:57.504Z,30.97
2019-01-20T15:29:25.708Z,31.17
2019-01-20T15:31:53.845Z,32.30
2019-01-20T15:34:22.029Z,31.33
2019-01-20T15:36:50.400Z,31.50
2019-01-20T15:39:18.597Z,31.80
2019-01-20T15:41:46.759Z,30.60
2019-01-20T15:44:14.900Z,30.80
2019-01-20T15:46:43.118Z,31.73
2019-01-20T15:49:11.275Z,31.67
2019-01-20T15:51:39.599Z,30.80
2019-01-20T15:54:07.803Z,31.03
2019-01-20T15:56:36.002Z,30.97
2019-01-20T15:59:04.241Z,30.30
2019-01-20T16:01:32.387Z,31.10
2019-01-20T16:04:00.602Z,30.33
2019-01-20T16:06:28.822Z,30.03
2019-01-20T16:08:56.969Z,29.90
2019-01-20T16:11:25.093Z,29.07
2019-01-20T16:13:53.310Z,30.33
2019-01-20T16:16:21.473Z,29.53
2019-01-20T16:18:49.617Z,30.63
2019-01-20T16:21:17.785Z,29.40
2019-01-20T16:23:45.962Z,29.93
2019-01-20T16:26:14.919Z,29.77
2019-01-20T16:28:43.435Z,29.57
2019-01-20T16:31:11.716Z,29.23
2019-01-20T16:33:39.850Z,29.63
2019-01-20T16:36:08.109Z,29.97
2019-01-20T16:38:36.207Z,28.93
2019-01-20T16:41:04.548Z,29.37
2019-01-20T16:43:32.687Z,30.07
2019-01-20T16:46:00.848Z,29.00
2019-01-20T16:48:28.977Z,29.33
2019-01-20T16:50:57.145Z,29.60
2019-01-20T16:53:25.387Z,28.33
2019-01-20T16:55:53.511Z,28.27
2019-01-20T16:58:21.675Z,30.13
2019-01-20T17:00:49.833Z,27.30
2019-01-20T17:03:18.058Z,28.43
2019-01-20T17:05:46.535Z,28.70
2019-01-20T17:08:15.216Z,27.43
2019-01-20T17:10:43.352Z,27.70
2019-01-20T17:13:11.482Z,27.97
2019-01-20T17:15:41.960Z,28.07
2019-01-20T17:18:11.100Z,28.33
2019-01-20T17:20:39.239Z,27.93
2019-01-20T17:23:07.425Z,28.47
2019-01-20T17:25:35.580Z,28.30
2019-01-20T17:28:03.772Z,27.97
2019-01-20T17:30:33.380Z,29.00
2019-01-20T17:33:02.004Z,28.37
2019-01-20T17:35:30.131Z,28.80
2019-01-20T17:37:58.286Z,28.27
2019-01-20T17:40:45.883Z,29.30
2019-01-20T17:43:14.080Z,29.13
2019-01-20T17:45:47.613Z,27.97
2019-01-20T17:48:12.118Z,29.67
2019-01-20T17:50:41.213Z,29.10
2019-01-20T17:53:09.536Z,29.57
2019-01-20T17:55:37.682Z,29.07
2019-01-20T17:58:05.832Z,30.33
2019-01-20T18:00:40.115Z,28.40
2019-01-20T18:03:08.620Z,29.63
2019-01-20T18:05:37.043Z,29.80
2019-01-20T18:08:05.251Z,31.30
2019-01-20T18:10:33.455Z,30.10
2019-01-20T18:13:01.694Z,30.90
2019-01-20T18:15:30.106Z,29.97
2019-01-20T18:17:58.829Z,29.53
2019-01-20T18:20:28.571Z,29.73
2019-01-20T18:22:56.776Z,31.87
2019-01-20T18:25:24.915Z,31.53
2019-01-20T18:27:53.068Z,32.20
2019-01-20T18:30:22.291Z,31.30
2019-01-20T18:32:50.414Z,31.50
2019-01-20T18:35:18.562Z,31.63
2019-01-20T18:37:46.802Z,31.97
2019-01-20T18:40:16.554Z,31.17
2019-01-20T18:42:44.830Z,32.03
2019-01-20T18:45:14.176Z,32.17
2019-01-20T18:47:42.455Z,33.13
2019-01-20T18:50:12.168Z,32.77
2019-01-20T18:52:40.417Z,32.97
2019-01-20T18:55:12.646Z,33.67
2019-01-20T18:57:40.799Z,33.90
2019-01-20T19:00:10.577Z,32.77
2019-01-20T19:02:38.702Z,32.33
2019-01-20T19:05:08.488Z,33.63
2019-01-20T19:07:36.663Z,33.33
2019-01-20T19:10:06.452Z,34.17
2019-01-20T19:12:34.580Z,34.13
2019-01-20T19:15:02.743Z,33.93
2019-01-20T19:17:30.894Z,36.03
2019-01-20T19:19:59.040Z,35.30
2019-01-20T19:22:27.292Z,35.70
2019-01-20T19:24:55.442Z,38.07
2019-01-20T19:27:23.576Z,39.60
2019-01-20T19:29:51.802Z,36.93
2019-01-20T19:32:20.338Z,48.07
2019-01-20T19:34:48.486Z,50.13
2019-01-20T19:37:16.616Z,49.97
2019-01-20T19:39:50.494Z,49.63
2019-01-20T19:42:14.762Z,52.53
2019-01-20T19:44:42.967Z,56.53
2019-01-20T19:47:11.122Z,49.43
2019-01-20T19:49:39.250Z,50.93
2019-01-20T19:52:07.471Z,49.80
2019-01-20T19:54:35.683Z,49.37
2019-01-20T19:57:03.922Z,49.50
2019-01-20T19:59:32.070Z,49.43
2019-01-20T20:02:00.288Z,49.73
2019-01-20T20:04:28.460Z,49.90
2019-01-20T20:06:56.600Z,48.23
2019-01-20T20:09:24.875Z,50.53
2019-01-20T20:11:53.258Z,49.17
2019-01-20T20:14:21.410Z,49.93
2019-01-20T20:16:49.608Z,52.17
2019-01-20T20:19:17.887Z,49.30
2019-01-20T20:21:46.023Z,50.60
2019-01-20T20:24:14.164Z,50.60
2019-01-20T20:26:42.320Z,51.43
2019-01-20T20:29:10.455Z,51.73
2019-01-20T20:31:39.915Z,52.13
2019-01-20T20:34:08.061Z,50.10
2019-01-20T20:36:36.412Z,54.30
2019-01-20T20:39:05.805Z,56.48
2019-01-20T20:41:34.009Z,56.30
2019-01-20T20:44:02.221Z,51.73
2019-01-20T20:46:30.780Z,50.63
2019-01-20T20:48:59.086Z,51.30
2019-01-20T20:51:27.306Z,50.67
2019-01-20T20:53:55.467Z,51.83
2019-01-20T20:56:23.781Z,49.90
2019-01-20T20:58:51.978Z,51.00
2019-01-20T21:01:20.106Z,52.23
2019-01-20T21:03:48.278Z,56.37
2019-01-20T21:06:16.408Z,49.47
2019-01-20T21:08:48.423Z,51.90
2019-01-20T21:11:14.349Z,52.40
2019-01-20T21:13:42.484Z,52.73
2019-01-20T21:16:10.658Z,57.73
2019-01-20T21:18:38.784Z,52.73
2019-01-20T21:21:06.991Z,53.13
2019-01-20T21:23:35.168Z,51.60
2019-01-20T21:26:03.374Z,51.63
2019-01-20T21:28:31.517Z,52.97
2019-01-20T21:30:59.691Z,52.97
2019-01-20T21:33:30.677Z,53.83
2019-01-20T21:35:58.808Z,53.10
2019-01-20T21:38:26.958Z,51.80
2019-01-20T21:40:55.167Z,51.50
2019-01-20T21:43:23.385Z,58.17
2019-01-20T21:45:51.541Z,56.07
2019-01-20T21:48:19.702Z,56.60
2019-01-20T21:50:47.815Z,53.93
2019-01-20T21:53:16.099Z,52.93
2019-01-20T21:55:44.243Z,55.20
2019-01-20T21:58:12.384Z,54.97
2019-01-20T22:00:40.524Z,55.80
2019-01-20T22:03:08.664Z,53.50
2019-01-20T22:05:36.789Z,53.10
2019-01-20T22:08:04.940Z,55.33
2019-01-20T22:10:33.214Z,55.03
2019-01-20T22:13:01.474Z,53.07
2019-01-20T22:15:29.604Z,53.23
2019-01-20T22:17:57.754Z,54.50
2019-01-20T22:20:25.920Z,55.67
2019-01-20T22:22:54.055Z,54.00
2019-01-20T22:25:22.186Z,53.83
2019-01-20T22:27:50.363Z,55.23
2019-01-20T22:30:19.883Z,55.70
2019-01-20T22:32:48.003Z,54.33
2019-01-20T22:35:16.259Z,54.87
2019-01-20T22:37:44.463Z,56.13
2019-01-20T22:40:14.215Z,54.63
2019-01-20T22:42:42.420Z,56.10
2019-01-20T22:45:11.996Z,55.30
2019-01-20T22:47:40.136Z,54.17
2019-01-20T22:50:09.633Z,53.13
2019-01-20T22:52:43.753Z,54.10
2019-01-20T22:55:13.168Z,55.13
2019-01-20T22:57:41.345Z,54.87
2019-01-20T23:00:11.050Z,52.40
2019-01-20T23:02:39.361Z,54.90
2019-01-20T23:05:07.481Z,53.37
2019-01-20T23:07:35.627Z,54.47
2019-01-20T23:10:05.079Z,55.67
2019-01-20T23:12:52.747Z,56.90
2019-01-20T23:15:21.330Z,60.40
2019-01-20T23:17:49.573Z,55.17
2019-01-20T23:20:18.146Z,53.90
2019-01-20T23:22:46.395Z,54.53
2019-01-20T23:25:14.541Z,57.27
2019-01-20T23:27:42.770Z,55.13
2019-01-20T23:30:12.603Z,57.37
2019-01-20T23:32:40.752Z,61.03
2019-01-20T23:35:08.870Z,57.23
2019-01-20T23:37:37.058Z,57.37
2019-01-20T23:40:09.862Z,56.93
2019-01-20T23:42:37.990Z,57.87
2019-01-20T23:45:07.514Z,57.27
2019-01-20T23:47:35.724Z,57.10
2019-01-20T23:50:05.436Z,58.70
2019-01-20T23:52:34.096Z,57.67
2019-01-20T23:55:02.214Z,57.60
2019-01-20T23:57:30.376Z,58.50
2019-01-20T23:59:59.526Z,57.77
